createdAt,value
2019-05-16T00:01:30.812Z,2.13
2019-05-16T00:04:12.747Z,1.90
2019-05-16T00:06:55.489Z,1.87
2019-05-16T00:09:38.274Z,1.67
2019-05-16T00:12:20.830Z,1.83
2019-05-16T00:15:02.613Z,2.03
2019-05-16T00:17:48.889Z,3.40
2019-05-16T00:20:31.298Z,1.90
2019-05-16T00:23:13.941Z,1.67
2019-05-16T00:25:58.424Z,2.03
2019-05-16T00:28:40.629Z,2.13
2019-05-16T00:31:22.461Z,2.20
2019-05-16T00:34:05.386Z,1.93
2019-05-16T00:36:48.800Z,3.50
2019-05-16T00:39:30.613Z,2.80
2019-05-16T00:42:13.094Z,3.67
2019-05-16T00:44:55.677Z,1.53
2019-05-16T00:47:39.123Z,1.93
2019-05-16T00:50:21.739Z,2.80
2019-05-16T00:53:04.092Z,2.80
2019-05-16T00:55:47.980Z,2.23
2019-05-16T00:58:30.762Z,3.03
2019-05-16T01:01:13.878Z,2.20
2019-05-16T01:03:58.462Z,2.60
2019-05-16T01:06:40.082Z,3.33
2019-05-16T01:09:22.709Z,2.00
2019-05-16T01:12:04.841Z,2.63
2019-05-16T01:14:47.844Z,3.60
2019-05-16T01:17:30.690Z,2.20
2019-05-16T01:20:13.162Z,3.40
2019-05-16T01:22:58.059Z,4.93
2019-05-16T01:25:39.274Z,2.63
2019-05-16T01:28:21.087Z,3.10
2019-05-16T01:31:03.861Z,3.93
2019-05-16T01:33:47.831Z,4.07
2019-05-16T01:36:36.655Z,3.93
2019-05-16T01:39:15.273Z,3.47
2019-05-16T01:41:58.693Z,3.77
2019-05-16T01:44:41.441Z,4.60
2019-05-16T01:47:23.779Z,3.83
2019-05-16T01:50:06.062Z,5.70
2019-05-16T01:52:48.655Z,5.30
2019-05-16T01:55:32.251Z,5.87
2019-05-16T01:58:15.013Z,3.00
2019-05-16T02:01:10.510Z,3.90
2019-05-16T02:03:42.305Z,4.03
2019-05-16T02:06:24.717Z,5.57
2019-05-16T02:09:08.106Z,4.40
2019-05-16T02:11:51.086Z,5.13
2019-05-16T02:14:33.762Z,4.00
2019-05-16T02:17:18.358Z,5.33
2019-05-16T02:20:00.681Z,5.77
2019-05-16T02:22:42.597Z,3.83
2019-05-16T02:25:24.630Z,4.97
2019-05-16T02:28:07.026Z,5.30
2019-05-16T02:30:51.562Z,5.03
2019-05-16T02:33:32.471Z,5.23
2019-05-16T02:36:14.982Z,5.30
2019-05-16T02:38:57.623Z,3.77
2019-05-16T02:41:45.628Z,4.80
2019-05-16T02:44:24.620Z,5.33
2019-05-16T02:47:06.883Z,4.83
2019-05-16T02:49:50.510Z,4.10
2019-05-16T02:52:33.998Z,5.40
2019-05-16T02:55:16.843Z,2.70
2019-05-16T02:58:00.773Z,4.03
2019-05-16T03:00:43.859Z,3.70
2019-05-16T03:03:26.526Z,4.17
2019-05-16T03:06:11.138Z,3.30
2019-05-16T03:08:53.595Z,2.80
2019-05-16T03:11:36.538Z,3.13
2019-05-16T03:14:21.224Z,3.93
2019-05-16T03:17:03.075Z,4.00
2019-05-16T03:19:45.193Z,4.23
2019-05-16T03:22:27.757Z,4.10
2019-05-16T03:25:11.410Z,4.83
2019-05-16T03:27:54.321Z,3.13
2019-05-16T03:30:36.863Z,2.57
2019-05-16T03:33:26.020Z,2.50
2019-05-16T03:36:04.648Z,4.10
2019-05-16T03:38:47.289Z,2.80
2019-05-16T03:41:30.908Z,2.50
2019-05-16T03:44:12.902Z,3.30
2019-05-16T03:46:55.459Z,3.60
2019-05-16T03:49:38.191Z,3.90
2019-05-16T03:52:20.842Z,3.40
2019-05-16T03:55:03.548Z,4.70
2019-05-16T03:57:46.083Z,3.37
2019-05-16T04:00:31.449Z,4.10
2019-05-16T04:03:11.755Z,3.33
2019-05-16T04:05:53.762Z,2.57
2019-05-16T04:08:36.661Z,1.93
2019-05-16T04:11:23.095Z,4.33
2019-05-16T04:14:02.557Z,4.50
2019-05-16T04:16:44.215Z,5.07
2019-05-16T04:19:25.865Z,4.93
2019-05-16T04:22:10.453Z,4.37
2019-05-16T04:24:51.938Z,4.73
2019-05-16T04:27:33.846Z,4.70
2019-05-16T04:30:16.283Z,2.67
2019-05-16T04:33:01.696Z,5.10
2019-05-16T04:35:42.922Z,5.73
2019-05-16T04:38:40.921Z,5.80
2019-05-16T04:41:11.513Z,5.77
2019-05-16T04:43:53.926Z,5.67
2019-05-16T04:46:36.260Z,5.93
2019-05-16T04:49:20.955Z,4.80
2019-05-16T04:52:02.214Z,5.67
2019-05-16T04:54:44.086Z,3.50
2019-05-16T04:57:25.918Z,5.50
2019-05-16T05:00:10.876Z,5.80
2019-05-16T05:02:51.791Z,5.97
2019-05-16T05:05:34.623Z,5.20
2019-05-16T05:08:17.198Z,5.57
2019-05-16T05:11:01.324Z,4.53
2019-05-16T05:13:42.790Z,5.10
2019-05-16T05:16:25.025Z,4.43
2019-05-16T05:19:07.490Z,5.00
2019-05-16T05:21:51.458Z,7.57
2019-05-16T05:24:33.346Z,5.93
2019-05-16T05:27:14.957Z,6.93
2019-05-16T05:29:57.187Z,5.30
2019-05-16T05:32:41.047Z,5.43
2019-05-16T05:35:22.570Z,5.50
2019-05-16T05:38:04.773Z,4.57
2019-05-16T05:40:47.713Z,4.77
2019-05-16T05:43:30.501Z,5.63
2019-05-16T05:46:13.181Z,6.60
2019-05-16T05:48:55.049Z,5.10
2019-05-16T05:51:37.517Z,6.10
2019-05-16T05:54:20.341Z,5.63
2019-05-16T05:57:02.869Z,5.27
2019-05-16T05:59:45.806Z,6.10
2019-05-16T06:02:30.806Z,5.07
2019-05-16T06:05:12.704Z,5.33
2019-05-16T06:07:55.033Z,5.80
2019-05-16T06:10:36.974Z,5.13
2019-05-16T06:13:20.630Z,5.00
2019-05-16T06:16:03.406Z,5.30
2019-05-16T06:18:45.234Z,4.87
2019-05-16T06:21:33.090Z,5.13
2019-05-16T06:24:12.492Z,4.60
2019-05-16T06:26:55.078Z,5.97
2019-05-16T06:29:36.768Z,4.20
2019-05-16T06:32:19.838Z,4.60
2019-05-16T06:35:02.112Z,4.20
2019-05-16T06:37:44.654Z,5.97
2019-05-16T06:40:26.349Z,5.60
2019-05-16T06:43:10.936Z,5.63
2019-05-16T06:45:52.724Z,5.20
2019-05-16T06:48:35.295Z,4.43
2019-05-16T06:51:19.867Z,5.47
2019-05-16T06:54:01.177Z,5.67
2019-05-16T06:56:43.763Z,5.77
2019-05-16T06:59:26.326Z,5.57
2019-05-16T07:02:10.884Z,5.53
2019-05-16T07:04:52.210Z,5.30
2019-05-16T07:07:34.676Z,4.13
2019-05-16T07:10:16.422Z,5.13
2019-05-16T07:13:00.827Z,5.07
2019-05-16T07:15:43.509Z,6.13
2019-05-16T07:18:26.014Z,5.60
2019-05-16T07:21:10.896Z,5.43
2019-05-16T07:23:53.485Z,5.57
2019-05-16T07:26:35.265Z,5.80
2019-05-16T07:29:20.076Z,6.20
2019-05-16T07:32:02.093Z,7.80
2019-05-16T07:34:44.607Z,6.23
2019-05-16T07:37:26.530Z,5.73
2019-05-16T07:40:19.457Z,6.17
2019-05-16T07:42:52.114Z,6.57
2019-05-16T07:45:37.655Z,6.40
2019-05-16T07:48:20.849Z,6.27
2019-05-16T07:51:02.096Z,5.20
2019-05-16T07:53:44.098Z,5.37
2019-05-16T07:56:26.669Z,5.73
2019-05-16T07:59:10.362Z,6.03
2019-05-16T08:01:54.088Z,6.10
2019-05-16T08:04:36.422Z,5.30
2019-05-16T08:07:20.137Z,6.47
2019-05-16T08:10:02.835Z,6.73
2019-05-16T08:12:44.640Z,6.80
2019-05-16T08:15:30.232Z,7.03
2019-05-16T08:18:11.606Z,6.73
2019-05-16T08:20:53.349Z,6.03
2019-05-16T08:23:37.634Z,6.87
2019-05-16T08:29:03.704Z,6.40
2019-05-16T08:31:46.145Z,7.60
2019-05-16T08:34:32.178Z,6.10
2019-05-16T08:37:32.977Z,5.60
2019-05-16T08:39:57.050Z,5.20
2019-05-16T08:42:41.627Z,4.40
2019-05-16T08:45:22.727Z,3.43
2019-05-16T08:48:04.758Z,6.33
2019-05-16T08:50:53.908Z,4.87
2019-05-16T08:53:31.664Z,4.53
2019-05-16T08:56:14.434Z,4.33
2019-05-16T08:58:57.025Z,4.77
2019-05-16T09:01:48.306Z,4.27
2019-05-16T09:04:24.937Z,7.30
2019-05-16T09:07:07.475Z,5.83
2019-05-16T09:09:53.052Z,5.00
2019-05-16T09:10:26.226Z,7.07
2019-05-16T09:12:33.532Z,6.10
2019-05-16T09:15:17.141Z,6.60
2019-05-16T09:17:59.529Z,6.60
2019-05-16T09:20:42.885Z,4.93
2019-05-16T09:23:26.780Z,5.30
2019-05-16T09:26:09.174Z,4.80
2019-05-16T09:28:50.926Z,4.87
2019-05-16T09:31:32.834Z,3.90
2019-05-16T09:34:17.492Z,5.90
2019-05-16T09:37:01.144Z,4.50
2019-05-16T09:39:43.374Z,5.00
2019-05-16T09:42:27.716Z,4.23
2019-05-16T09:45:10.222Z,4.63
2019-05-16T09:47:52.662Z,3.63
2019-05-16T09:50:34.546Z,4.53
2019-05-16T09:53:17.328Z,4.40
2019-05-16T09:55:59.702Z,4.37
2019-05-16T09:58:41.986Z,4.90
2019-05-16T10:01:27.401Z,3.90
2019-05-16T10:04:08.196Z,4.20
2019-05-16T10:06:50.790Z,3.27
2019-05-16T10:09:41.952Z,3.60
2019-05-16T10:12:18.550Z,3.50
2019-05-16T10:14:59.881Z,4.03
2019-05-16T10:17:42.142Z,4.00
2019-05-16T10:20:27.181Z,3.57
2019-05-16T10:23:14.275Z,3.80
2019-05-16T10:25:52.361Z,2.73
2019-05-16T10:28:34.373Z,3.97
2019-05-16T10:31:17.864Z,4.60
2019-05-16T10:34:00.378Z,3.90
2019-05-16T10:36:42.489Z,3.70
2019-05-16T10:39:26.806Z,3.50
2019-05-16T10:42:23.485Z,3.67
2019-05-16T10:44:52.415Z,4.77
2019-05-16T10:47:37.111Z,4.50
2019-05-16T10:50:19.519Z,5.40
2019-05-16T10:53:22.175Z,4.53
2019-05-16T10:55:47.573Z,6.00
2019-05-16T10:58:37.178Z,4.37
2019-05-16T11:01:27.147Z,6.10
2019-05-16T11:03:58.357Z,5.00
2019-05-16T11:06:40.189Z,5.70
2019-05-16T11:09:22.445Z,5.20
2019-05-16T11:12:05.097Z,6.17
2019-05-16T11:14:47.902Z,5.80
2019-05-16T11:17:30.855Z,6.00
2019-05-16T11:20:13.257Z,6.33
2019-05-16T11:25:47.150Z,6.00
2019-05-16T11:28:30.213Z,6.67
2019-05-16T11:31:12.647Z,6.10
2019-05-16T11:33:57.399Z,6.43
2019-05-16T11:36:39.243Z,6.97
2019-05-16T11:39:21.933Z,6.60
2019-05-16T11:42:03.903Z,6.73
2019-05-16T11:44:47.816Z,7.20
2019-05-16T11:47:29.942Z,6.40
2019-05-16T11:50:12.510Z,7.87
2019-05-16T11:52:56.927Z,5.80
2019-05-16T11:55:54.159Z,7.00
2019-05-16T11:58:23.681Z,7.10
2019-05-16T12:01:07.592Z,8.53
2019-05-16T12:03:50.338Z,7.67
2019-05-16T12:06:32.111Z,6.40
2019-05-16T12:09:14.276Z,7.37
2019-05-16T12:12:03.940Z,8.97
2019-05-16T12:14:40.829Z,7.23
2019-05-16T12:17:23.382Z,7.37
2019-05-16T12:20:07.915Z,7.63
2019-05-16T12:22:50.058Z,7.70
2019-05-16T12:25:32.685Z,7.20
2019-05-16T12:28:16.679Z,9.07
2019-05-16T12:30:59.023Z,9.23
2019-05-16T12:33:41.895Z,9.03
2019-05-16T12:36:26.631Z,9.07
2019-05-16T12:39:08.545Z,8.30
2019-05-16T12:41:50.390Z,9.27
2019-05-16T12:44:32.858Z,9.40
2019-05-16T12:47:15.598Z,9.10
2019-05-16T12:49:58.380Z,9.67
2019-05-16T12:52:40.669Z,9.20
2019-05-16T12:55:22.502Z,9.47
2019-05-16T12:58:12.552Z,8.23
2019-05-16T13:00:57.729Z,9.60
2019-05-16T13:03:33.265Z,9.63
2019-05-16T13:06:17.200Z,9.20
2019-05-16T13:08:59.876Z,8.67
2019-05-16T13:11:42.212Z,9.20
2019-05-16T13:14:24.202Z,8.03
2019-05-16T13:17:07.254Z,10.07
2019-05-16T13:19:49.338Z,9.30
2019-05-16T13:22:30.978Z,9.60
2019-05-16T13:25:13.558Z,8.83
2019-05-16T13:27:57.729Z,8.27
2019-05-16T13:30:39.814Z,11.40
2019-05-16T13:33:22.333Z,10.30
2019-05-16T13:36:07.206Z,10.00
2019-05-16T13:38:49.002Z,10.93
2019-05-16T13:41:33.781Z,10.80
2019-05-16T13:44:21.937Z,10.40
2019-05-16T13:46:58.467Z,10.97
2019-05-16T13:49:40.277Z,10.90
2019-05-16T13:52:22.973Z,10.70
2019-05-16T13:55:07.005Z,11.30
2019-05-16T13:57:49.945Z,12.20
2019-05-16T14:00:32.099Z,10.73
2019-05-16T14:03:17.728Z,10.60
2019-05-16T14:05:59.250Z,11.83
2019-05-16T14:08:41.759Z,10.40
2019-05-16T14:11:24.478Z,12.50
2019-05-16T14:14:07.225Z,12.83
2019-05-16T14:16:49.151Z,11.93
2019-05-16T14:19:30.995Z,10.90
2019-05-16T14:22:13.606Z,12.57
2019-05-16T14:24:57.059Z,13.00
2019-05-16T14:27:38.857Z,12.30
2019-05-16T14:30:20.826Z,12.80
2019-05-16T14:33:03.317Z,12.53
2019-05-16T14:35:47.247Z,13.33
2019-05-16T14:38:29.955Z,15.37
2019-05-16T14:41:12.733Z,14.00
2019-05-16T14:43:55.007Z,13.77
2019-05-16T14:46:38.210Z,14.33
2019-05-16T14:49:21.558Z,13.57
2019-05-16T14:52:04.015Z,13.10
2019-05-16T14:54:46.921Z,13.10
2019-05-16T14:57:29.678Z,13.07
2019-05-16T15:00:12.314Z,12.30
2019-05-16T15:02:56.625Z,13.50
2019-05-16T15:05:42.513Z,14.60
2019-05-16T15:08:22.581Z,12.53
2019-05-16T15:11:04.670Z,13.00
2019-05-16T15:13:46.370Z,13.00
2019-05-16T15:16:28.189Z,14.63
2019-05-16T15:19:10.443Z,13.53
2019-05-16T15:21:53.009Z,12.60
2019-05-16T15:24:37.109Z,13.40
2019-05-16T15:27:19.163Z,11.50
2019-05-16T15:30:01.469Z,12.83
2019-05-16T15:32:43.502Z,12.73
2019-05-16T15:35:30.060Z,13.13
2019-05-16T15:38:10.577Z,13.50
2019-05-16T15:40:52.695Z,12.60
2019-05-16T15:43:36.978Z,14.80
2019-05-16T15:46:19.657Z,13.67
2019-05-16T15:49:02.427Z,13.60
2019-05-16T15:51:44.572Z,13.30
2019-05-16T15:54:28.522Z,13.53
2019-05-16T15:57:10.792Z,13.00
2019-05-16T15:59:52.549Z,13.07
2019-05-16T16:02:36.794Z,11.33
2019-05-16T16:05:19.359Z,13.00
2019-05-16T16:08:01.821Z,11.60
2019-05-16T16:10:43.792Z,11.63
2019-05-16T16:13:26.842Z,12.83
2019-05-16T16:16:10.681Z,13.80
2019-05-16T16:18:52.073Z,13.20
2019-05-16T16:21:33.757Z,13.90
2019-05-16T16:24:19.069Z,13.70
2019-05-16T16:26:59.261Z,13.60
2019-05-16T16:29:41.933Z,13.23
2019-05-16T16:32:26.877Z,14.70
2019-05-16T16:35:09.322Z,15.33
2019-05-16T16:37:51.821Z,15.57
2019-05-16T16:40:34.030Z,16.03
2019-05-16T16:43:15.874Z,16.40
2019-05-16T16:46:08.726Z,16.43
2019-05-16T16:48:42.314Z,17.80
2019-05-16T16:51:26.878Z,18.30
2019-05-16T16:54:09.130Z,16.40
2019-05-16T16:56:51.458Z,17.43
2019-05-16T16:59:36.902Z,16.00
2019-05-16T17:02:18.441Z,16.07
2019-05-16T17:05:02.599Z,17.93
2019-05-16T17:07:45.357Z,16.10
2019-05-16T17:10:27.668Z,17.40
2019-05-16T17:13:10.366Z,16.17
2019-05-16T17:15:52.869Z,15.93
2019-05-16T17:18:36.934Z,14.90
2019-05-16T17:21:19.474Z,16.57
2019-05-16T17:24:02.247Z,16.70
2019-05-16T17:26:47.535Z,14.67
2019-05-16T17:29:28.505Z,15.20
2019-05-16T17:32:10.472Z,15.10
2019-05-16T17:34:54.455Z,17.03
2019-05-16T17:37:37.575Z,15.37
2019-05-16T17:40:21.262Z,16.87
2019-05-16T17:43:04.022Z,15.57
2019-05-16T17:45:47.076Z,15.67
2019-05-16T17:48:29.909Z,16.67
2019-05-16T17:51:12.998Z,16.10
2019-05-16T17:53:57.073Z,14.33
2019-05-16T17:56:39.417Z,14.23
2019-05-16T17:59:22.065Z,14.43
2019-05-16T18:02:06.332Z,13.70
2019-05-16T18:04:48.733Z,13.80
2019-05-16T18:07:31.189Z,14.43
2019-05-16T18:10:13.001Z,13.83
2019-05-16T18:12:56.857Z,18.70
2019-05-16T18:15:39.130Z,18.37
2019-05-16T18:18:21.178Z,24.43
2019-05-16T18:21:03.753Z,17.20
2019-05-16T18:23:47.240Z,13.03
2019-05-16T18:26:29.921Z,12.83
2019-05-16T18:29:12.317Z,11.80
2019-05-16T18:31:54.585Z,12.00
2019-05-16T18:34:37.667Z,13.57
2019-05-16T18:37:20.482Z,11.53
2019-05-16T18:40:03.078Z,12.47
2019-05-16T18:42:47.703Z,12.27
2019-05-16T18:45:30.149Z,11.37
2019-05-16T18:48:12.610Z,11.43
2019-05-16T18:50:57.791Z,10.20
2019-05-16T18:53:40.190Z,12.83
2019-05-16T18:56:22.635Z,13.70
2019-05-16T18:59:06.209Z,16.37
2019-05-16T19:01:48.339Z,13.20
2019-05-16T19:04:30.478Z,12.70
2019-05-16T19:07:12.281Z,10.13
2019-05-16T19:09:54.307Z,10.87
2019-05-16T19:12:37.175Z,11.50
2019-05-16T19:15:19.179Z,13.00
2019-05-16T19:18:01.773Z,11.00
2019-05-16T19:20:46.062Z,12.70
2019-05-16T19:23:28.354Z,11.47
2019-05-16T19:26:11.034Z,13.70
2019-05-16T19:28:53.297Z,13.57
2019-05-16T19:31:38.909Z,12.40
2019-05-16T19:34:19.354Z,13.50
2019-05-16T19:37:02.002Z,13.80
2019-05-16T19:39:46.263Z,14.67
2019-05-16T19:42:29.811Z,12.93
2019-05-16T19:45:12.466Z,12.90
2019-05-16T19:47:57.271Z,12.83
2019-05-16T19:50:38.561Z,12.83
2019-05-16T19:53:22.478Z,14.13
2019-05-16T19:56:07.002Z,13.13
2019-05-16T19:58:48.889Z,12.03
2019-05-16T20:01:31.459Z,13.87
2019-05-16T20:04:16.059Z,13.10
2019-05-16T20:06:57.297Z,13.93
2019-05-16T20:09:39.005Z,13.27
2019-05-16T20:12:21.029Z,13.17
2019-05-16T20:15:08.085Z,12.10
2019-05-16T20:17:58.379Z,11.60
2019-05-16T20:20:31.438Z,11.73
2019-05-16T20:23:13.842Z,12.90
2019-05-16T20:25:57.186Z,11.90
2019-05-16T20:28:40.018Z,12.50
2019-05-16T20:31:22.401Z,10.27
2019-05-16T20:34:09.159Z,12.43
2019-05-16T20:36:48.969Z,11.80
2019-05-16T20:39:31.433Z,11.37
2019-05-16T20:42:13.394Z,13.83
2019-05-16T20:44:57.541Z,13.57
2019-05-16T20:47:40.157Z,14.83
2019-05-16T20:50:22.541Z,12.63
2019-05-16T20:53:06.938Z,16.47
2019-05-16T20:55:49.634Z,14.57
2019-05-16T20:58:32.483Z,15.10
2019-05-16T21:01:17.190Z,16.50
2019-05-16T21:03:59.314Z,20.40
2019-05-16T21:06:53.448Z,22.50
2019-05-16T21:09:26.258Z,24.53
2019-05-16T21:12:08.395Z,21.40
2019-05-16T21:14:50.207Z,23.40
2019-05-16T21:17:31.934Z,28.37
2019-05-16T21:20:14.389Z,20.20
2019-05-16T21:22:57.022Z,20.30
2019-05-16T21:25:39.030Z,18.83
2019-05-16T21:31:11.929Z,17.93
2019-05-16T21:33:53.585Z,20.87
2019-05-16T21:36:36.761Z,17.00
2019-05-16T21:39:19.902Z,15.07
2019-05-16T21:42:02.458Z,15.00
2019-05-16T21:44:46.545Z,14.13
2019-05-16T21:47:28.550Z,18.70
2019-05-16T21:50:10.393Z,13.00
2019-05-16T21:52:53.057Z,13.73
2019-05-16T21:55:36.856Z,23.70
2019-05-16T21:58:19.666Z,26.87
2019-05-16T22:01:01.638Z,23.30
2019-05-16T22:03:47.076Z,20.43
2019-05-16T22:06:29.157Z,20.60
2019-05-16T22:09:11.534Z,20.93
2019-05-16T22:11:57.329Z,18.70
2019-05-16T22:14:41.089Z,15.77
2019-05-16T22:17:23.620Z,19.90
2019-05-16T22:20:07.018Z,13.57
2019-05-16T22:22:50.685Z,12.60
2019-05-16T22:25:33.505Z,14.40
2019-05-16T22:28:17.217Z,17.90
2019-05-16T22:30:59.550Z,14.20
2019-05-16T22:33:42.120Z,9.50
2019-05-16T22:36:26.272Z,8.80
2019-05-16T22:39:08.198Z,9.17
2019-05-16T22:41:50.790Z,7.30
2019-05-16T22:44:33.556Z,9.20
2019-05-16T22:47:17.142Z,8.13
2019-05-16T22:49:59.410Z,8.93
2019-05-16T22:52:41.973Z,6.60
2019-05-16T22:55:26.275Z,6.83
2019-05-16T22:58:08.517Z,8.10
2019-05-16T23:00:51.013Z,8.30
2019-05-16T23:03:32.717Z,9.07
2019-05-16T23:06:16.169Z,9.07
2019-05-16T23:08:59.938Z,8.03
2019-05-16T23:11:42.262Z,6.70
2019-05-16T23:14:26.257Z,7.70
2019-05-16T23:17:07.768Z,6.30
2019-05-16T23:19:50.247Z,6.47
2019-05-16T23:22:31.912Z,6.70
2019-05-16T23:25:16.931Z,5.70
2019-05-16T23:27:59.066Z,5.20
2019-05-16T23:30:41.922Z,6.90
2019-05-16T23:33:26.761Z,6.17
2019-05-16T23:36:08.709Z,10.33
2019-05-16T23:38:50.457Z,15.03
2019-05-16T23:41:32.361Z,13.70
2019-05-16T23:44:16.641Z,12.00
2019-05-16T23:46:58.895Z,11.30
2019-05-16T23:49:40.606Z,12.30
2019-05-16T23:52:23.237Z,12.63
2019-05-16T23:55:08.276Z,10.63
2019-05-16T23:57:50.141Z,9.17
